Time;durP1;ratioP1;P1;durP2;ratioP2;P2;SDS_P1;SDS_P2;PMS_P1;PMS_P2;Temp;Humidity;BMP_temperature;BMP_pressure;BME280_temperature;BME280_humidity;BME280_pressure;Samples;Min_cycle;Max_cycle;Signal;HPM_P1;HPM_P2
2021/01/13 00:01:36;;;;;;;;;;;;;;;;;;5093756;28;19925;-59
2021/01/13 00:04:02;;;;;;;;;;;;;;;;;;5094026;28;19974;-59
2021/01/13 00:06:28;;;;;;;;;;;;;;;;;;5093725;28;20363;-59
2021/01/13 00:08:54;;;;;;;;;;;;;;;;;;5093729;28;19951;-56
2021/01/13 00:11:20;;;;;;;;;;;;;;;;;;5093690;28;19923;-57
2021/01/13 00:13:46;;;;;;;;;;;;;;;;;;5093636;28;19946;-59
2021/01/13 00:16:12;;;;;;;;;;;;;;;;;;5093908;28;19973;-58
2021/01/13 00:18:38;;;;;;;;;;;;;;;;;;5093570;28;19970;-58
2021/01/13 00:21:04;;;;;;;;;;;;;;;;;;5093719;28;19923;-59
2021/01/13 00:23:30;;;;;;;;;;;;;;;;;;5093497;28;19946;-59
2021/01/13 00:25:56;;;;;;;;;;;;;;;;;;5093826;28;19923;-58
2021/01/13 00:28:22;;;;;;;;;;;;;;;;;;5093464;28;19937;-58
2021/01/13 00:30:48;;;;;;;;;;;;;;;;;;5093721;28;20010;-58
2021/01/13 00:33:14;;;;;;;;;;;;;;;;;;5093561;28;20323;-59
2021/01/13 00:35:40;;;;;;;;;;;;;;;;;;5093354;28;19931;-59
2021/01/13 00:38:06;;;;;;;;;;;;;;;;;;5093711;28;19951;-59
2021/01/13 00:40:32;;;;;;;;;;;;;;;;;;5093279;28;19927;-56
2021/01/13 00:42:58;;;;;;;;;;;;;;;;;;5093427;28;19933;-58
2021/01/13 00:45:24;;;;;;;;;;;;;;;;;;5094139;28;20380;-57
2021/01/13 00:47:50;;;;;;;;;;;;;;;;;;5093293;28;19923;-59
2021/01/13 00:50:16;;;;;;;;;;;;;;;;;;5091761;28;20006;-59
2021/01/13 00:52:42;;;;;;;;;;;;;;;;;;5093274;28;19960;-59
2021/01/13 00:55:08;;;;;;;;;;;;;;;;;;5093139;28;19948;-59
2021/01/13 00:57:34;;;;;;;;;;;;;;;;;;5093432;28;19923;-59
2021/01/13 01:00:00;;;;;;;;;;;;;;;;;;5091901;28;19924;-58
2021/01/13 01:02:26;;;;;;;;;;;;;;;;;;5093258;28;19939;-59
2021/01/13 01:04:52;;;;;;;;;;;;;;;;;;5095534;28;19912;-58
2021/01/13 01:07:18;;;;;;;;;;;;;;;;;;5096763;28;20064;-58
2021/01/13 01:09:44;;;;;;;;;;;;;;;;;;5096708;28;20313;-58
2021/01/13 01:12:10;;;;;;;;;;;;;;;;;;5096927;28;19925;-58
2021/01/13 01:14:36;;;;;;;;;;;;;;;;;;5096671;28;19941;-58
2021/01/13 01:17:02;;;;;;;;;;;;;;;;;;5096543;28;20075;-58
2021/01/13 01:19:28;;;;;;;;;;;;;;;;;;5096428;28;19983;-59
2021/01/13 01:21:54;;;;;;;;;;;;;;;;;;5096778;28;20378;-58
2021/01/13 01:24:20;;;;;;;;;;;;;;;;;;5096362;28;19966;-58
2021/01/13 01:26:46;;;;;;;;;;;;;;;;;;5096366;28;20023;-58
2021/01/13 01:29:12;;;;;;;;;;;;;;;;;;5096294;28;19936;-58
2021/01/13 01:31:38;;;;;;;;;;;;;;;;;;5096611;28;19924;-58
2021/01/13 01:34:04;;;;;;;;;;;;;;;;;;5096420;28;19962;-58
2021/01/13 01:36:30;;;;;;;;;;;;;;;;;;5096117;28;19931;-59
2021/01/13 01:38:56;;;;;;;;;;;;;;;;;;5096105;28;19949;-58
2021/01/13 01:41:23;;;;;;;;;;;;;;;;;;5096189;28;19938;-58
2021/01/13 01:43:49;;;;;;;;;;;;;;;;;;5096185;28;19933;-58
2021/01/13 01:46:15;;;;;;;;;;;;;;;;;;5096108;28;19922;-58
2021/01/13 01:48:41;;;;;;;;;;;;;;;;;;5095948;28;20028;-58
2021/01/13 01:51:07;;;;;;;;;;;;;;;;;;5096144;28;19929;-58
2021/01/13 01:53:33;;;;;;;;;;;;;;;;;;5096082;28;19922;-58
2021/01/13 01:56:00;;;;;;;;;;;;;;;;;;5094536;28;20026;-58
2021/01/13 01:58:26;;;;;;;;;;;;;;;;;;5095796;28;19947;-58
2021/01/13 02:00:52;;;;;;;;;;;;;;;;;;5096058;28;19923;-58
2021/01/13 02:03:18;;;;;;;;;;;;;;;;;;5095643;28;20405;-58
2021/01/13 02:05:44;;;;;;;;;;;;;;;;;;5095576;28;19969;-58
2021/01/13 02:08:10;;;;;;;;;;;;;;;;;;5095596;28;19919;-58
2021/01/13 02:10:36;;;;;;;;;;;;;;;;;;5095564;28;19995;-59
2021/01/13 02:13:02;;;;;;;;;;;;;;;;;;5095358;28;19999;-58
2021/01/13 02:15:28;;;;;;;;;;;;;;;;;;5095110;28;19926;-59
2021/01/13 02:17:54;;;;;;;;;;;;;;;;;;5095436;28;19952;-58
2021/01/13 02:20:20;;;;;;;;;;;;;;;;;;5095404;28;19926;-58
2021/01/13 02:22:46;;;;;;;;;;;;;;;;;;5095475;28;20025;-59
2021/01/13 02:25:16;;;;;;;;;;;;;;;;;;5095311;28;20054;-59
2021/01/13 02:27:42;;;;;;;;;;;;;;;;;;5095196;28;19908;-59
2021/01/13 02:30:07;;;;;;;;;;;;;;;;;;5095204;28;19928;-59
2021/01/13 02:32:33;;;;;;;;;;;;;;;;;;5095043;28;19923;-59
2021/01/13 02:34:59;;;;;;;;;;;;;;;;;;5095429;28;19992;-59
2021/01/13 02:37:25;;;;;;;;;;;;;;;;;;5094888;28;19926;-59
2021/01/13 02:39:51;;;;;;;;;;;;;;;;;;5095136;28;19956;-59
2021/01/13 02:42:17;;;;;;;;;;;;;;;;;;5095113;28;20367;-59
2021/01/13 02:44:43;;;;;;;;;;;;;;;;;;5094896;28;19924;-57
2021/01/13 02:47:09;;;;;;;;;;;;;;;;;;5094744;28;19969;-60
2021/01/13 02:49:35;;;;;;;;;;;;;;;;;;5094894;28;19976;-59
2021/01/13 02:52:01;;;;;;;;;;;;;;;;;;5094618;28;19924;-56
2021/01/13 02:54:27;;;;;;;;;;;;;;;;;;5095007;28;19924;-59
2021/01/13 02:56:53;;;;;;;;;;;;;;;;;;5094625;28;20019;-55
2021/01/13 02:59:19;;;;;;;;;;;;;;;;;;5094857;28;19949;-59
2021/01/13 03:01:45;;;;;;;;;;;;;;;;;;5094539;28;19950;-59
2021/01/13 03:04:11;;;;;;;;;;;;;;;;;;5094578;28;19944;-59
2021/01/13 03:06:37;;;;;;;;;;;;;;;;;;5094740;28;19948;-59
2021/01/13 03:09:03;;;;;;;;;;;;;;;;;;5094509;28;19924;-59
2021/01/13 03:11:29;;;;;;;;;;;;;;;;;;5094413;28;20361;-59
2021/01/13 03:13:55;;;;;;;;;;;;;;;;;;5094587;28;20367;-59
2021/01/13 03:16:21;;;;;;;;;;;;;;;;;;5094273;28;19973;-59
2021/01/13 03:18:47;;;;;;;;;;;;;;;;;;5094263;28;20003;-59
2021/01/13 03:21:13;;;;;;;;;;;;;;;;;;5094235;28;19924;-59
2021/01/13 03:23:39;;;;;;;;;;;;;;;;;;5094096;28;19909;-59
2021/01/13 03:26:05;;;;;;;;;;;;;;;;;;5093978;28;19928;-59
2021/01/13 03:28:31;;;;;;;;;;;;;;;;;;5093994;28;19932;-60
2021/01/13 03:30:57;;;;;;;;;;;;;;;;;;5094218;28;20333;-59
2021/01/13 03:33:23;;;;;;;;;;;;;;;;;;5094313;28;19924;-59
2021/01/13 03:35:49;;;;;;;;;;;;;;;;;;5094338;28;19928;-59
2021/01/13 03:38:15;;;;;;;;;;;;;;;;;;5094048;28;19956;-59
2021/01/13 03:40:41;;;;;;;;;;;;;;;;;;5094264;28;19979;-59
2021/01/13 03:43:07;;;;;;;;;;;;;;;;;;5094032;28;19919;-58
2021/01/13 03:45:33;;;;;;;;;;;;;;;;;;5093938;28;20368;-59
2021/01/13 03:47:59;;;;;;;;;;;;;;;;;;5094155;28;19991;-59
2021/01/13 03:50:25;;;;;;;;;;;;;;;;;;5093946;28;19959;-59
2021/01/13 03:52:51;;;;;;;;;;;;;;;;;;5093855;28;20286;-59
2021/01/13 03:55:17;;;;;;;;;;;;;;;;;;5093822;28;19923;-59
2021/01/13 03:57:43;;;;;;;;;;;;;;;;;;5093669;28;19984;-59
2021/01/13 04:00:09;;;;;;;;;;;;;;;;;;5092549;28;19908;-59
2021/01/13 04:02:35;;;;;;;;;;;;;;;;;;5093738;28;19930;-59
2021/01/13 04:05:01;;;;;;;;;;;;;;;;;;5093959;28;19954;-58
2021/01/13 04:07:27;;;;;;;;;;;;;;;;;;5093758;28;19925;-59
2021/01/13 04:09:53;;;;;;;;;;;;;;;;;;5093665;28;19934;-59
2021/01/13 04:12:22;;;;;;;;;;;;;;;;;;5093702;28;19926;-59
2021/01/13 04:14:48;;;;;;;;;;;;;;;;;;5093669;28;19926;-59
2021/01/13 04:17:14;;;;;;;;;;;;;;;;;;5094144;28;19930;-59
2021/01/13 04:19:40;;;;;;;;;;;;;;;;;;5093492;28;20393;-59
2021/01/13 04:22:07;;;;;;;;;;;;;;;;;;5093846;28;19958;-58
2021/01/13 04:24:33;;;;;;;;;;;;;;;;;;5093463;28;20316;-59
2021/01/13 04:26:59;;;;;;;;;;;;;;;;;;5093695;28;20018;-59
2021/01/13 04:29:25;;;;;;;;;;;;;;;;;;5093503;28;20294;-59
2021/01/13 04:31:51;;;;;;;;;;;;;;;;;;5092279;28;19924;-58
2021/01/13 04:34:17;;;;;;;;;;;;;;;;;;5093381;28;20036;-59
2021/01/13 04:36:43;;;;;;;;;;;;;;;;;;5093480;28;19930;-59
2021/01/13 04:39:09;;;;;;;;;;;;;;;;;;5096317;28;19954;-59
2021/01/13 04:41:35;;;;;;;;;;;;;;;;;;5097480;28;20286;-58
2021/01/13 04:44:01;;;;;;;;;;;;;;;;;;5095920;28;19991;-59
2021/01/13 04:46:27;;;;;;;;;;;;;;;;;;5097533;28;20093;-60
2021/01/13 04:48:53;;;;;;;;;;;;;;;;;;5096944;28;20419;-56
2021/01/13 04:51:19;;;;;;;;;;;;;;;;;;5097424;28;20043;-58
2021/01/13 04:53:45;;;;;;;;;;;;;;;;;;5096978;28;20312;-59
2021/01/13 04:56:10;;;;;;;;;;;;;;;;;;5097035;28;19926;-59
2021/01/13 04:58:36;;;;;;;;;;;;;;;;;;5096927;28;19995;-59
2021/01/13 05:01:02;;;;;;;;;;;;;;;;;;5096896;28;19935;-59
2021/01/13 05:03:28;;;;;;;;;;;;;;;;;;5096973;28;19924;-58
2021/01/13 05:05:54;;;;;;;;;;;;;;;;;;5096724;28;19922;-59
2021/01/13 05:08:20;;;;;;;;;;;;;;;;;;5096848;28;20347;-58
2021/01/13 05:10:46;;;;;;;;;;;;;;;;;;5096673;28;19918;-60
2021/01/13 05:13:12;;;;;;;;;;;;;;;;;;5096740;28;20017;-55
2021/01/13 05:15:38;;;;;;;;;;;;;;;;;;5096557;28;19931;-59
2021/01/13 05:18:04;;;;;;;;;;;;;;;;;;5096530;28;19986;-59
2021/01/13 05:20:30;;;;;;;;;;;;;;;;;;5096617;28;20429;-58
2021/01/13 05:22:56;;;;;;;;;;;;;;;;;;5096379;28;20037;-59
2021/01/13 05:25:22;;;;;;;;;;;;;;;;;;5096313;28;19928;-59
2021/01/13 05:27:48;;;;;;;;;;;;;;;;;;5096659;28;20015;-59
2021/01/13 05:30:14;;;;;;;;;;;;;;;;;;5096229;28;20328;-59
2021/01/13 05:32:40;;;;;;;;;;;;;;;;;;5096373;28;20406;-58
2021/01/13 05:35:06;;;;;;;;;;;;;;;;;;5096236;28;19922;-59
2021/01/13 05:37:32;;;;;;;;;;;;;;;;;;5096215;28;19937;-59
2021/01/13 05:39:58;;;;;;;;;;;;;;;;;;5095918;28;19956;-60
2021/01/13 05:42:24;;;;;;;;;;;;;;;;;;5096100;28;19954;-60
2021/01/13 05:44:50;;;;;;;;;;;;;;;;;;5096082;28;20383;-60
2021/01/13 05:47:16;;;;;;;;;;;;;;;;;;5096344;28;20380;-59
2021/01/13 05:49:42;;;;;;;;;;;;;;;;;;5095296;28;19974;-59
2021/01/13 05:52:08;;;;;;;;;;;;;;;;;;5089682;28;19946;-59
2021/01/13 05:54:34;;;;;;;;;;;;;;;;;;5091417;28;19972;-59
2021/01/13 05:57:00;;;;;;;;;;;;;;;;;;5093802;28;19953;-59
2021/01/13 05:59:26;;;;;;;;;;;;;;;;;;5108427;28;19983;-57
2021/01/13 06:01:52;;;;;;;;;;;;;;;;;;5115311;28;20399;-59
2021/01/13 06:04:18;;;;;;;;;;;;;;;;;;5116140;28;19908;-59
2021/01/13 06:06:45;;;;;;;;;;;;;;;;;;5114591;28;19944;-59
2021/01/13 06:09:11;;;;;;;;;;;;;;;;;;5116168;28;19923;-58
2021/01/13 06:11:37;;;;;;;;;;;;;;;;;;5115823;28;20364;-59
2021/01/13 06:14:02;;;;;;;;;;;;;;;;;;5114671;28;19928;-59
2021/01/13 06:16:28;;;;;;;;;;;;;;;;;;5116029;28;19926;-59
2021/01/13 06:18:54;;;;;;;;;;;;;;;;;;5115823;28;20429;-59
2021/01/13 06:21:20;;;;;;;;;;;;;;;;;;5115627;28;19926;-59
2021/01/13 06:23:46;;;;;;;;;;;;;;;;;;5115892;28;19907;-59
2021/01/13 06:26:12;;;;;;;;;;;;;;;;;;5115459;28;19966;-59
2021/01/13 06:28:38;;;;;;;;;;;;;;;;;;5115492;28;19908;-59
2021/01/13 06:31:04;;;;;;;;;;;;;;;;;;5115391;28;19962;-59
2021/01/13 06:33:32;;;;;;;;;;;;;;;;;;5115774;28;19922;-58
2021/01/13 06:35:58;;;;;;;;;;;;;;;;;;5115333;28;19931;-59
2021/01/13 06:38:24;;;;;;;;;;;;;;;;;;5115518;28;19943;-58
2021/01/13 06:40:50;;;;;;;;;;;;;;;;;;5115123;28;20391;-59
2021/01/13 06:43:16;;;;;;;;;;;;;;;;;;5114641;28;19962;-59
2021/01/13 06:45:42;;;;;;;;;;;;;;;;;;5115246;28;19924;-57
2021/01/13 06:48:08;;;;;;;;;;;;;;;;;;5106625;28;19952;-58
2021/01/13 06:50:34;;;;;;;;;;;;;;;;;;5074358;28;20047;-58
2021/01/13 06:53:00;;;;;;;;;;;;;;;;;;5073028;28;19915;-59
2021/01/13 06:55:26;;;;;;;;;;;;;;;;;;5074667;28;19972;-59
2021/01/13 06:57:52;;;;;;;;;;;;;;;;;;5074243;28;20450;-56
2021/01/13 07:00:18;;;;;;;;;;;;;;;;;;5073084;28;19923;-60
2021/01/13 07:02:44;;;;;;;;;;;;;;;;;;5073265;28;20373;-59
2021/01/13 07:05:10;;;;;;;;;;;;;;;;;;5074242;28;19908;-59
2021/01/13 07:07:36;;;;;;;;;;;;;;;;;;5074397;28;19923;-59
2021/01/13 07:10:02;;;;;;;;;;;;;;;;;;5074469;28;20236;-59
2021/01/13 07:12:28;;;;;;;;;;;;;;;;;;5074120;28;19921;-59
2021/01/13 07:14:54;;;;;;;;;;;;;;;;;;5074024;28;19924;-60
2021/01/13 07:17:20;;;;;;;;;;;;;;;;;;5073867;28;19930;-60
2021/01/13 07:19:46;;;;;;;;;;;;;;;;;;5073941;28;19949;-60
2021/01/13 07:22:12;;;;;;;;;;;;;;;;;;5074074;28;20017;-59
2021/01/13 07:24:38;;;;;;;;;;;;;;;;;;5080921;28;20443;-58
2021/01/13 07:27:04;;;;;;;;;;;;;;;;;;5082986;28;20013;-59
2021/01/13 07:29:30;;;;;;;;;;;;;;;;;;5087971;28;20352;-59
2021/01/13 07:31:57;;;;;;;;;;;;;;;;;;5085951;28;20362;-59
2021/01/13 07:34:23;;;;;;;;;;;;;;;;;;5085622;28;19933;-60
2021/01/13 07:36:49;;;;;;;;;;;;;;;;;;5079005;28;19908;-59
2021/01/13 07:39:15;;;;;;;;;;;;;;;;;;5073677;28;19923;-59
2021/01/13 07:41:41;;;;;;;;;;;;;;;;;;5084374;28;19923;-59
2021/01/13 07:44:07;;;;;;;;;;;;;;;;;;5093992;28;19931;-59
2021/01/13 07:46:33;;;;;;;;;;;;;;;;;;5089979;28;20250;-59
2021/01/13 07:48:59;;;;;;;;;;;;;;;;;;5074252;28;19961;-59
2021/01/13 07:51:25;;;;;;;;;;;;;;;;;;5073693;28;20446;-58
2021/01/13 07:53:51;;;;;;;;;;;;;;;;;;5073693;28;19949;-59
2021/01/13 07:56:17;;;;;;;;;;;;;;;;;;5073668;28;19915;-60
2021/01/13 07:58:43;;;;;;;;;;;;;;;;;;5073540;28;19947;-60
2021/01/13 08:01:09;;;;;;;;;;;;;;;;;;5073543;28;20021;-59
2021/01/13 08:03:35;;;;;;;;;;;;;;;;;;5073458;28;20273;-59
2021/01/13 08:06:01;;;;;;;;;;;;;;;;;;5073555;28;19932;-60
2021/01/13 08:08:27;;;;;;;;;;;;;;;;;;5073399;28;19923;-60
2021/01/13 08:10:53;;;;;;;;;;;;;;;;;;5073420;28;19949;-60
2021/01/13 08:13:19;;;;;;;;;;;;;;;;;;5074922;28;19952;-60
2021/01/13 08:15:45;;;;;;;;;;;;;;;;;;5077597;28;19955;-59
2021/01/13 08:18:12;;;;;;;;;;;;;;;;;;5076000;28;19997;-59
2021/01/13 08:20:39;;;;;;;;;;;;;;;;;;5077462;28;19923;-60
2021/01/13 08:25:49;;;;;;;;;;;;;;;;;;5086675;28;20008;-60
2021/01/13 08:28:15;;;;;;;;;;;;;;;;;;5088162;28;20009;-60
2021/01/13 08:30:44;;;;;;;;;;;;;;;;;;5091327;28;19921;-59
2021/01/13 08:33:10;;;;;;;;;;;;;;;;;;5088508;28;19976;-59
2021/01/13 08:35:36;;;;;;;;;;;;;;;;;;5088650;28;20320;-59
2021/01/13 08:38:02;;;;;;;;;;;;;;;;;;5097454;28;19972;-60
2021/01/13 08:40:28;;;;;;;;;;;;;;;;;;5112833;28;19927;-59
2021/01/13 08:42:54;;;;;;;;;;;;;;;;;;5117545;28;19922;-59
2021/01/13 08:45:20;;;;;;;;;;;;;;;;;;5117610;28;19930;-60
2021/01/13 08:47:46;;;;;;;;;;;;;;;;;;5086248;28;19937;-60
2021/01/13 08:50:12;;;;;;;;;;;;;;;;;;5092589;28;19980;-60
2021/01/13 08:52:38;;;;;;;;;;;;;;;;;;5096990;28;19943;-60
2021/01/13 08:55:04;;;;;;;;;;;;;;;;;;5096825;28;19947;-59
2021/01/13 08:57:30;;;;;;;;;;;;;;;;;;5096716;28;20033;-60
2021/01/13 08:59:56;;;;;;;;;;;;;;;;;;5096699;28;19947;-60
2021/01/13 09:02:22;;;;;;;;;;;;;;;;;;5095623;28;19930;-60
2021/01/13 09:04:48;;;;;;;;;;;;;;;;;;5096632;28;20002;-58
2021/01/13 09:07:14;;;;;;;;;;;;;;;;;;5097111;28;20317;-60
2021/01/13 09:09:40;;;;;;;;;;;;;;;;;;5096503;28;19979;-59
2021/01/13 09:12:06;;;;;;;;;;;;;;;;;;5076469;28;19930;-59
2021/01/13 09:14:32;;;;;;;;;;;;;;;;;;5074977;28;20018;-60
2021/01/13 09:16:58;;;;;;;;;;;;;;;;;;5076261;28;19908;-60
2021/01/13 09:19:24;;;;;;;;;;;;;;;;;;5079396;28;19947;-59
2021/01/13 09:21:50;;;;;;;;;;;;;;;;;;5076242;28;19942;-60
2021/01/13 09:24:17;;;;;;;;;;;;;;;;;;5075491;28;19985;-60
2021/01/13 09:26:43;;;;;;;;;;;;;;;;;;5076240;28;19987;-60
2021/01/13 09:29:09;;;;;;;;;;;;;;;;;;5075911;28;19924;-59
2021/01/13 09:31:35;;;;;;;;;;;;;;;;;;5076199;28;19930;-60
2021/01/13 09:34:01;;;;;;;;;;;;;;;;;;5078039;28;19936;-60
2021/01/13 09:36:27;;;;;;;;;;;;;;;;;;5075757;28;20039;-60
2021/01/13 09:38:53;;;;;;;;;;;;;;;;;;5075698;28;24509;-59
2021/01/13 09:41:19;;;;;;;;;;;;;;;;;;5088619;28;20269;-59
2021/01/13 09:43:45;;;;;;;;;;;;;;;;;;5091657;28;19904;-60
2021/01/13 09:46:11;;;;;;;;;;;;;;;;;;5090185;28;19911;-60
2021/01/13 09:48:37;;;;;;;;;;;;;;;;;;5081805;28;19904;-59
2021/01/13 09:51:03;;;;;;;;;;;;;;;;;;5088267;28;19912;-60
2021/01/13 09:53:29;;;;;;;;;;;;;;;;;;5096970;28;20343;-59
2021/01/13 09:55:55;;;;;;;;;;;;;;;;;;5084112;28;19912;-59
2021/01/13 09:58:23;;;;;;;;;;;;;;;;;;5078155;28;19916;-60
2021/01/13 10:00:49;;;;;;;;;;;;;;;;;;5075369;28;19909;-60
2021/01/13 10:03:15;;;;;;;;;;;;;;;;;;5075398;28;19904;-60
2021/01/13 10:05:40;;;;;;;;;;;;;;;;;;5075248;28;20357;-60
2021/01/13 10:08:07;;;;;;;;;;;;;;;;;;5075428;28;19950;-60
2021/01/13 10:10:33;;;;;;;;;;;;;;;;;;5073972;28;20280;-60
2021/01/13 10:12:59;;;;;;;;;;;;;;;;;;5075109;28;20349;-60
2021/01/13 10:15:25;;;;;;;;;;;;;;;;;;5075159;28;19950;-60
2021/01/13 10:17:51;;;;;;;;;;;;;;;;;;5075112;28;19908;-60
2021/01/13 10:20:17;;;;;;;;;;;;;;;;;;5074908;28;20365;-60
2021/01/13 10:22:43;;;;;;;;;;;;;;;;;;5075059;28;19931;-60
2021/01/13 10:25:09;;;;;;;;;;;;;;;;;;5074929;28;20026;-60
2021/01/13 10:27:35;;;;;;;;;;;;;;;;;;5078455;28;20376;-60
2021/01/13 10:30:01;;;;;;;;;;;;;;;;;;5081886;28;19935;-60
2021/01/13 10:32:27;;;;;;;;;;;;;;;;;;5094921;28;20375;-61
2021/01/13 10:34:53;;;;;;;;;;;;;;;;;;5095095;28;19908;-60
2021/01/13 10:37:19;;;;;;;;;;;;;;;;;;5095299;28;19911;-61
2021/01/13 10:39:45;;;;;;;;;;;;;;;;;;5091703;28;19929;-59
2021/01/13 10:42:11;;;;;;;;;;;;;;;;;;5085843;28;19908;-59
2021/01/13 10:44:39;;;;;;;;;;;;;;;;;;5086529;28;20341;-59
2021/01/13 10:47:05;;;;;;;;;;;;;;;;;;5080870;28;19908;-60
2021/01/13 10:49:31;;;;;;;;;;;;;;;;;;5078557;28;19956;-60
2021/01/13 10:51:57;;;;;;;;;;;;;;;;;;5083789;28;19951;-60
2021/01/13 10:54:23;;;;;;;;;;;;;;;;;;5081634;28;19908;-60
2021/01/13 10:56:49;;;;;;;;;;;;;;;;;;5084832;28;20331;-60
2021/01/13 10:59:16;;;;;;;;;;;;;;;;;;5083888;28;19923;-60
2021/01/13 11:01:42;;;;;;;;;;;;;;;;;;5086051;28;19970;-59
2021/01/13 11:04:08;;;;;;;;;;;;;;;;;;5094547;28;19908;-60
2021/01/13 11:06:34;;;;;;;;;;;;;;;;;;5094707;28;19915;-60
2021/01/13 11:09:00;;;;;;;;;;;;;;;;;;5094499;28;20353;-60
2021/01/13 11:11:26;;;;;;;;;;;;;;;;;;5094636;28;19961;-60
2021/01/13 11:13:52;;;;;;;;;;;;;;;;;;5094656;28;20379;-60
2021/01/13 11:16:18;;;;;;;;;;;;;;;;;;5094269;28;20264;-60
2021/01/13 11:18:44;;;;;;;;;;;;;;;;;;5094299;28;19913;-58
2021/01/13 11:21:09;;;;;;;;;;;;;;;;;;5094162;28;20557;-59
2021/01/13 11:23:35;;;;;;;;;;;;;;;;;;5094472;28;19939;-58
2021/01/13 11:26:01;;;;;;;;;;;;;;;;;;5094116;28;19915;-58
2021/01/13 11:28:27;;;;;;;;;;;;;;;;;;5094232;28;19908;-58
2021/01/13 11:30:53;;;;;;;;;;;;;;;;;;5094225;28;19914;-58
2021/01/13 11:33:20;;;;;;;;;;;;;;;;;;5094476;28;20365;-58
2021/01/13 11:35:46;;;;;;;;;;;;;;;;;;5094309;28;19908;-58
2021/01/13 11:38:12;;;;;;;;;;;;;;;;;;5088063;28;19919;-58
2021/01/13 11:40:38;;;;;;;;;;;;;;;;;;5080333;28;20367;-58
2021/01/13 11:43:04;;;;;;;;;;;;;;;;;;5082899;28;19908;-58
2021/01/13 11:45:30;;;;;;;;;;;;;;;;;;5082202;28;19955;-58
2021/01/13 11:47:56;;;;;;;;;;;;;;;;;;5083097;28;19912;-57
2021/01/13 11:50:22;;;;;;;;;;;;;;;;;;5083607;28;19932;-58
2021/01/13 11:52:48;;;;;;;;;;;;;;;;;;5078277;28;19919;-57
2021/01/13 11:55:14;;;;;;;;;;;;;;;;;;5083807;28;19908;-58
2021/01/13 11:57:40;;;;;;;;;;;;;;;;;;5082509;28;19909;-58
2021/01/13 12:00:06;;;;;;;;;;;;;;;;;;5082412;28;19916;-58
2021/01/13 12:02:33;;;;;;;;;;;;;;;;;;5084396;28;19944;-58
2021/01/13 12:04:59;;;;;;;;;;;;;;;;;;5083054;28;19912;-58
2021/01/13 12:07:26;;;;;;;;;;;;;;;;;;5082243;28;19920;-58
2021/01/13 12:09:52;;;;;;;;;;;;;;;;;;5084486;28;20272;-57
2021/01/13 12:12:18;;;;;;;;;;;;;;;;;;5082750;28;20007;-57
2021/01/13 12:14:44;;;;;;;;;;;;;;;;;;5082045;28;19916;-57
2021/01/13 12:17:10;;;;;;;;;;;;;;;;;;5082023;28;19908;-57
2021/01/13 12:19:36;;;;;;;;;;;;;;;;;;5082065;28;19923;-57
2021/01/13 12:22:02;;;;;;;;;;;;;;;;;;5081654;28;20892;-58
2021/01/13 12:24:28;;;;;;;;;;;;;;;;;;5085630;28;19909;-58
2021/01/13 12:26:55;;;;;;;;;;;;;;;;;;5087776;28;19927;-58
2021/01/13 12:29:21;;;;;;;;;;;;;;;;;;5077970;28;20384;-58
2021/01/13 12:31:47;;;;;;;;;;;;;;;;;;5083268;28;20376;-57
2021/01/13 12:34:14;;;;;;;;;;;;;;;;;;5076751;28;19969;-58
2021/01/13 12:36:40;;;;;;;;;;;;;;;;;;5086154;28;20000;-58
2021/01/13 12:39:06;;;;;;;;;;;;;;;;;;5073114;28;19966;-58
2021/01/13 12:41:32;;;;;;;;;;;;;;;;;;5085789;28;20325;-58
2021/01/13 12:43:58;;;;;;;;;;;;;;;;;;5093358;28;19908;-58
2021/01/13 12:46:24;;;;;;;;;;;;;;;;;;5093744;28;20000;-58
2021/01/13 12:48:50;;;;;;;;;;;;;;;;;;5093228;28;19963;-57
2021/01/13 12:51:16;;;;;;;;;;;;;;;;;;5075124;28;20016;-58
2021/01/13 12:53:42;;;;;;;;;;;;;;;;;;5073036;28;19908;-57
2021/01/13 12:56:08;;;;;;;;;;;;;;;;;;5073371;28;19962;-58
2021/01/13 12:58:34;;;;;;;;;;;;;;;;;;5073198;28;19920;-58
2021/01/13 13:01:00;;;;;;;;;;;;;;;;;;5076714;28;19909;-59
2021/01/13 13:03:26;;;;;;;;;;;;;;;;;;5076592;28;20430;-59
2021/01/13 13:05:52;;;;;;;;;;;;;;;;;;5076525;28;19909;-59
2021/01/13 13:08:18;;;;;;;;;;;;;;;;;;5076471;28;19916;-58
2021/01/13 13:10:44;;;;;;;;;;;;;;;;;;5076448;28;19909;-58
2021/01/13 13:13:10;;;;;;;;;;;;;;;;;;5077549;28;19935;-58
2021/01/13 13:15:36;;;;;;;;;;;;;;;;;;5077809;28;19909;-58
2021/01/13 13:18:02;;;;;;;;;;;;;;;;;;5076123;28;20353;-59
2021/01/13 13:20:28;;;;;;;;;;;;;;;;;;5076144;28;19916;-59
2021/01/13 13:22:54;;;;;;;;;;;;;;;;;;5075919;28;20007;-58
2021/01/13 13:25:20;;;;;;;;;;;;;;;;;;5076431;28;19908;-58
2021/01/13 13:27:46;;;;;;;;;;;;;;;;;;5075965;28;20004;-58
2021/01/13 13:30:12;;;;;;;;;;;;;;;;;;5075944;28;19909;-57
2021/01/13 13:32:38;;;;;;;;;;;;;;;;;;5076080;28;19909;-57
2021/01/13 13:35:04;;;;;;;;;;;;;;;;;;5076119;28;19931;-58
2021/01/13 13:37:30;;;;;;;;;;;;;;;;;;5076268;28;20324;-58
2021/01/13 13:39:56;;;;;;;;;;;;;;;;;;5075972;28;20423;-58
2021/01/13 13:42:22;;;;;;;;;;;;;;;;;;5075938;28;19909;-58
2021/01/13 13:44:48;;;;;;;;;;;;;;;;;;5075831;28;19909;-58
2021/01/13 13:47:14;;;;;;;;;;;;;;;;;;5076087;28;20431;-58
2021/01/13 13:49:40;;;;;;;;;;;;;;;;;;5075515;28;19920;-58
2021/01/13 13:52:06;;;;;;;;;;;;;;;;;;5076018;28;19909;-58
2021/01/13 13:54:32;;;;;;;;;;;;;;;;;;5075570;28;19908;-59
2021/01/13 13:56:58;;;;;;;;;;;;;;;;;;5076015;28;19909;-57
2021/01/13 13:59:24;;;;;;;;;;;;;;;;;;5075419;28;20365;-58
2021/01/13 14:01:50;;;;;;;;;;;;;;;;;;5075572;28;19908;-58
2021/01/13 14:04:16;;;;;;;;;;;;;;;;;;5075667;28;20353;-59
2021/01/13 14:06:42;;;;;;;;;;;;;;;;;;5075440;28;19959;-58
2021/01/13 14:09:08;;;;;;;;;;;;;;;;;;5075427;28;19908;-60
2021/01/13 14:11:34;;;;;;;;;;;;;;;;;;5074814;28;19959;-60
2021/01/13 14:14:00;;;;;;;;;;;;;;;;;;5075515;28;19909;-60
2021/01/13 14:16:26;;;;;;;;;;;;;;;;;;5075420;28;20430;-60
2021/01/13 14:18:52;;;;;;;;;;;;;;;;;;5075315;28;19912;-58
2021/01/13 14:21:18;;;;;;;;;;;;;;;;;;5085392;28;19912;-60
2021/01/13 14:23:44;;;;;;;;;;;;;;;;;;5082963;28;19913;-60
2021/01/13 14:26:10;;;;;;;;;;;;;;;;;;5084057;28;19919;-59
2021/01/13 14:28:39;;;;;;;;;;;;;;;;;;5087432;28;19919;-59
2021/01/13 14:31:05;;;;;;;;;;;;;;;;;;5082857;28;19913;-59
2021/01/13 14:33:31;;;;;;;;;;;;;;;;;;5083909;28;19912;-58
2021/01/13 14:35:56;;;;;;;;;;;;;;;;;;5099071;28;19908;-60
2021/01/13 14:38:23;;;;;;;;;;;;;;;;;;5094810;28;20174;-59
2021/01/13 14:40:48;;;;;;;;;;;;;;;;;;5079290;28;19922;-60
2021/01/13 14:43:14;;;;;;;;;;;;;;;;;;5088874;28;20280;-61
2021/01/13 14:45:40;;;;;;;;;;;;;;;;;;5094795;28;19961;-59
2021/01/13 14:48:06;;;;;;;;;;;;;;;;;;5100023;28;19961;-58
2021/01/13 14:50:32;;;;;;;;;;;;;;;;;;5086402;28;20346;-58
2021/01/13 14:52:59;;;;;;;;;;;;;;;;;;5087865;28;19912;-58
2021/01/13 14:55:25;;;;;;;;;;;;;;;;;;5083244;28;19957;-58
2021/01/13 14:57:51;;;;;;;;;;;;;;;;;;5077993;28;19946;-58
2021/01/13 15:00:18;;;;;;;;;;;;;;;;;;5083537;28;20495;-58
2021/01/13 15:02:44;;;;;;;;;;;;;;;;;;5098460;28;20281;-58
2021/01/13 15:05:10;;;;;;;;;;;;;;;;;;5079626;28;19912;-59
2021/01/13 15:07:36;;;;;;;;;;;;;;;;;;5084239;28;19974;-59
2021/01/13 15:10:02;;;;;;;;;;;;;;;;;;5076964;28;19913;-59
2021/01/13 15:12:28;;;;;;;;;;;;;;;;;;5103608;28;20284;-58
2021/01/13 15:14:54;;;;;;;;;;;;;;;;;;5097122;28;19908;-57
2021/01/13 15:17:20;;;;;;;;;;;;;;;;;;5087508;28;19919;-58
2021/01/13 15:19:46;;;;;;;;;;;;;;;;;;5074019;28;19938;-59
2021/01/13 15:22:12;;;;;;;;;;;;;;;;;;5073760;28;19908;-59
2021/01/13 15:24:38;;;;;;;;;;;;;;;;;;5073845;28;20277;-59
2021/01/13 15:27:07;;;;;;;;;;;;;;;;;;5074075;28;20341;-59
2021/01/13 15:29:33;;;;;;;;;;;;;;;;;;5082158;28;19919;-59
2021/01/13 15:31:59;;;;;;;;;;;;;;;;;;5093177;28;19908;-58
2021/01/13 15:34:24;;;;;;;;;;;;;;;;;;5086526;28;20303;-58
2021/01/13 15:36:51;;;;;;;;;;;;;;;;;;5073777;28;19915;-58
2021/01/13 15:39:17;;;;;;;;;;;;;;;;;;5078031;28;19919;-58
2021/01/13 15:41:43;;;;;;;;;;;;;;;;;;5095231;28;19911;-58
2021/01/13 15:44:08;;;;;;;;;;;;;;;;;;5093956;28;20364;-58
2021/01/13 15:46:35;;;;;;;;;;;;;;;;;;5094108;28;19999;-58
2021/01/13 15:49:01;;;;;;;;;;;;;;;;;;5093780;28;20010;-58
2021/01/13 15:51:27;;;;;;;;;;;;;;;;;;5094125;28;19952;-58
2021/01/13 15:53:53;;;;;;;;;;;;;;;;;;5088665;28;20697;-58
2021/01/13 15:56:19;;;;;;;;;;;;;;;;;;5101109;28;19965;-57
2021/01/13 15:58:46;;;;;;;;;;;;;;;;;;5112066;28;20380;-58
2021/01/13 16:01:12;;;;;;;;;;;;;;;;;;5112139;28;19915;-58
2021/01/13 16:03:38;;;;;;;;;;;;;;;;;;5112263;28;19908;-58
2021/01/13 16:06:04;;;;;;;;;;;;;;;;;;5112391;28;19915;-58
2021/01/13 16:08:30;;;;;;;;;;;;;;;;;;5112130;28;19912;-58
2021/01/13 16:10:56;;;;;;;;;;;;;;;;;;5111993;28;19919;-58
2021/01/13 16:13:22;;;;;;;;;;;;;;;;;;5112102;28;19908;-58
2021/01/13 16:15:48;;;;;;;;;;;;;;;;;;5112151;28;19965;-59
2021/01/13 16:18:14;;;;;;;;;;;;;;;;;;5112667;28;20004;-58
2021/01/13 16:20:40;;;;;;;;;;;;;;;;;;5111984;28;19918;-57
2021/01/13 16:23:08;;;;;;;;;;;;;;;;;;5111790;28;19930;-58
2021/01/13 16:25:34;;;;;;;;;;;;;;;;;;5111221;28;19908;-58
2021/01/13 16:28:00;;;;;;;;;;;;;;;;;;5112349;28;20383;-58
2021/01/13 16:30:26;;;;;;;;;;;;;;;;;;5112132;28;19992;-58
2021/01/13 16:32:52;;;;;;;;;;;;;;;;;;5111942;28;19914;-57
2021/01/13 16:35:18;;;;;;;;;;;;;;;;;;5115416;28;20330;-58
2021/01/13 16:37:44;;;;;;;;;;;;;;;;;;5116152;28;20344;-58
2021/01/13 16:40:10;;;;;;;;;;;;;;;;;;5114507;28;19915;-58